Time;durP1;ratioP1;P1;durP2;ratioP2;P2;SDS_P1;SDS_P2;PMS_P1;PMS_P2;Temp;Humidity;BMP_temperature;BMP_pressure;BME280_temperature;BME280_humidity;BME280_pressure;Samples;Min_cycle;Max_cycle;Signal;HPM_P1;HPM_P2
2024/04/09 00:01:22;;;;;;;19.23;3.85;;;;;;;18.03;48.53;97463.59;4953751;28;104946;-64
2024/04/09 00:03:48;;;;;;;14.82;3.33;;;;;;;18.06;48.62;97474.63;4953773;28;102764;-65
2024/04/09 00:06:14;;;;;;;18.60;3.95;;;;;;;18.10;48.84;97474.13;4952753;28;102752;-65
2024/04/09 00:08:44;;;;;;;16.10;3.80;;;;;;;18.09;49.62;97478.66;4957514;28;103368;-65
2024/04/09 00:11:21;;;;;;;12.18;2.78;;;;;;;18.02;49.76;97484.19;4955414;28;103449;-65
2024/04/09 00:13:51;;;;;;;18.58;3.58;;;;;;;18.02;50.18;97489.56;4937105;28;103661;-65
2024/04/09 00:16:27;;;;;;;14.73;3.20;;;;;;;17.97;49.55;97489.47;4954170;28;103233;-65
2024/04/09 00:18:55;;;;;;;24.85;4.65;;;;;;;17.80;49.82;97480.63;4969110;28;103298;-64
2024/04/09 00:21:22;;;;;;;28.02;5.35;;;;;;;17.67;50.53;97487.97;4951740;28;103134;-64
2024/04/09 00:23:48;;;;;;;25.63;4.47;;;;;;;17.38;50.32;97485.34;4955098;28;102873;-64
2024/04/09 00:26:17;;;;;;;23.00;4.03;;;;;;;17.55;50.10;97479.19;4944805;28;103059;-65
2024/04/09 00:28:43;;;;;;;23.85;5.75;;;;;;;17.46;50.14;97477.97;4946357;28;106683;-65
2024/04/09 00:31:13;;;;;;;19.05;3.92;;;;;;;17.56;49.96;97468.22;4937835;28;103182;-66
2024/04/09 00:33:39;;;;;;;21.50;3.53;;;;;;;17.58;50.07;97481.38;4957018;28;103999;-64
2024/04/09 00:36:05;;;;;;;22.35;4.38;;;;;;;17.65;50.25;97483.91;4972407;28;104946;-64
2024/04/09 00:38:33;;;;;;;23.45;4.20;;;;;;;17.39;50.88;97476.25;4955820;28;103641;-65
2024/04/09 00:41:03;;;;;;;14.85;3.17;;;;;;;17.40;50.59;97488.56;4971069;28;103299;-63
2024/04/09 00:43:28;;;;;;;21.77;3.85;;;;;;;17.51;49.78;97480.72;4951573;28;102887;-66
2024/04/09 00:45:55;;;;;;;16.40;3.85;;;;;;;17.56;49.62;97472.78;4934575;28;103263;-64
2024/04/09 00:48:21;;;;;;;19.00;4.38;;;;;;;17.50;49.84;97471.88;4945975;28;103649;-64
2024/04/09 00:50:48;;;;;;;11.73;3.30;;;;;;;17.54;49.87;97477.53;4958422;28;106527;-64
2024/04/09 00:53:18;;;;;;;35.58;5.65;;;;;;;17.37;49.52;97483.72;4952249;28;102746;-65
2024/04/09 00:55:49;;;;;;;23.05;4.30;;;;;;;17.51;49.11;97483.41;4967292;28;102812;-63
2024/04/09 00:58:17;;;;;;;15.27;3.20;;;;;;;17.57;48.84;97493.94;4942763;28;103329;-66
2024/04/09 01:00:43;;;;;;;16.20;3.67;;;;;;;17.61;48.63;97488.09;4958571;28;103931;-63
2024/04/09 01:03:10;;;;;;;30.67;4.22;;;;;;;17.50;49.65;97481.78;4955605;28;102856;-63
2024/04/09 01:05:40;;;;;;;28.25;5.32;;;;;;;17.25;49.93;97485.63;4968424;28;103146;-64
2024/04/09 01:08:06;;;;;;;19.15;3.53;;;;;;;17.26;50.15;97476.56;4951056;28;103415;-64
2024/04/09 01:10:32;;;;;;;15.35;3.65;;;;;;;17.25;50.42;97474.94;4939047;28;103147;-63
2024/04/09 01:12:59;;;;;;;29.50;4.82;;;;;;;16.93;50.83;97458.59;4936666;28;102843;-64
2024/04/09 01:15:28;;;;;;;32.00;4.82;;;;;;;16.87;50.67;97455.81;4951253;28;102924;-63
2024/04/09 01:17:53;;;;;;;17.15;3.53;;;;;;;17.18;49.66;97472.41;4935190;28;103747;-63
2024/04/09 01:20:19;;;;;;;27.33;4.55;;;;;;;17.11;51.77;97461.06;4954784;28;105274;-63
2024/04/09 01:22:45;;;;;;;21.88;4.55;;;;;;;16.66;53.08;97459.91;4952259;28;102953;-64
2024/04/09 01:25:14;;;;;;;19.00;3.10;;;;;;;16.99;51.32;97466.47;4957365;28;103075;-63
2024/04/09 01:27:40;;;;;;;22.15;4.88;;;;;;;16.84;53.23;97458.94;4934260;28;103545;-63
2024/04/09 01:30:08;;;;;;;34.00;4.78;;;;;;;16.46;54.39;97462.22;4933737;28;103377;-63
2024/04/09 01:32:36;;;;;;;30.52;4.70;;;;;;;16.71;52.24;97465.38;4943943;28;103617;-63
2024/04/09 01:35:08;;;;;;;33.00;5.22;;;;;;;16.71;51.86;97465.38;4949078;28;102850;-63
2024/04/09 01:37:39;;;;;;;23.23;4.50;;;;;;;16.54;52.63;97470.66;4949821;28;103578;-63
2024/04/09 01:40:06;;;;;;;20.35;4.90;;;;;;;16.70;51.91;97474.47;4953275;28;103426;-63
2024/04/09 01:42:35;;;;;;;12.38;3.20;;;;;;;16.95;50.92;97476.03;4949817;28;103215;-64
2024/04/09 01:45:00;;;;;;;31.20;4.75;;;;;;;16.45;52.53;97455.25;4952109;28;102813;-63
2024/04/09 01:47:30;;;;;;;21.50;4.82;;;;;;;16.61;51.56;97462.53;4956975;28;103347;-63
2024/04/09 01:49:57;;;;;;;19.13;3.92;;;;;;;16.93;50.70;97464.75;4953007;28;103262;-63
2024/04/09 01:52:23;;;;;;;17.38;3.40;;;;;;;17.04;51.19;97471.91;4955092;28;103502;-63
2024/04/09 01:54:51;;;;;;;19.42;3.45;;;;;;;17.09;51.08;97465.03;4953844;28;103013;-63
2024/04/09 01:57:20;;;;;;;16.65;3.38;;;;;;;16.95;51.47;97469.84;4938334;28;104469;-64
2024/04/09 01:59:45;;;;;;;28.48;4.57;;;;;;;17.00;52.12;97472.63;4952548;28;103406;-64
2024/04/09 02:02:16;;;;;;;15.85;3.10;;;;;;;17.00;51.60;97470.75;4954096;28;103020;-64
2024/04/09 02:04:42;;;;;;;10.45;2.80;;;;;;;16.98;51.43;97470.19;4969492;28;102929;-63
2024/04/09 02:07:07;;;;;;;21.13;3.63;;;;;;;17.06;51.65;97477.03;4956699;28;103400;-63
2024/04/09 02:09:36;;;;;;;20.50;4.18;;;;;;;17.02;52.40;97474.00;4953188;28;103659;-63
2024/04/09 02:12:03;;;;;;;19.95;3.83;;;;;;;16.91;54.17;97474.84;4938956;28;102856;-64
2024/04/09 02:14:32;;;;;;;19.55;3.70;;;;;;;16.95;53.66;97467.19;4954059;28;102860;-63
2024/04/09 02:16:58;;;;;;;19.13;4.05;;;;;;;16.86;55.17;97466.72;4967130;28;106541;-63
2024/04/09 02:19:24;;;;;;;17.70;4.10;;;;;;;16.89;53.83;97484.97;4955046;28;103300;-63
2024/04/09 02:21:51;;;;;;;16.33;3.60;;;;;;;17.00;52.94;97473.44;4955850;28;103245;-64
2024/04/09 02:24:19;;;;;;;19.60;3.95;;;;;;;16.97;52.62;97478.47;4967466;28;102814;-64
2024/04/09 02:26:44;;;;;;;15.23;3.42;;;;;;;16.99;52.02;97471.00;4955141;28;104510;-64
2024/04/09 02:29:11;;;;;;;28.00;4.93;;;;;;;16.78;52.56;97481.31;4970674;28;103196;-64
2024/04/09 02:31:40;;;;;;;32.15;5.45;;;;;;;16.41;53.52;97466.41;4936893;28;102818;-64
2024/04/09 02:34:05;;;;;;;26.92;4.55;;;;;;;16.46;52.60;97467.56;4938065;28;102821;-64
2024/04/09 02:36:31;;;;;;;17.27;4.00;;;;;;;16.73;52.37;97473.97;4954739;28;103380;-64
2024/04/09 02:38:57;;;;;;;23.90;4.28;;;;;;;16.68;52.78;97481.91;4969066;28;103450;-63
2024/04/09 02:41:25;;;;;;;17.92;4.22;;;;;;;16.72;52.58;97493.72;4952965;28;103196;-64
2024/04/09 02:43:51;;;;;;;34.17;4.80;;;;;;;16.23;51.06;97483.41;4946883;28;102989;-64
2024/04/09 02:46:19;;;;;;;28.55;5.13;;;;;;;16.12;51.75;97488.75;4963128;28;103302;-64
2024/04/09 02:48:44;;;;;;;29.65;4.53;;;;;;;16.27;51.32;97486.41;4932505;28;104618;-63
2024/04/09 02:51:10;;;;;;;19.38;4.32;;;;;;;16.21;51.33;97492.69;4954518;28;102824;-63
2024/04/09 02:53:36;;;;;;;27.80;5.68;;;;;;;16.26;51.71;97487.47;4956289;28;104221;-64
2024/04/09 02:56:03;;;;;;;17.17;3.45;;;;;;;16.50;51.18;97484.75;4949407;28;105465;-64
2024/04/09 02:58:34;;;;;;;24.38;4.65;;;;;;;16.42;52.02;97492.06;4953252;28;103820;-64
2024/04/09 03:01:10;;;;;;;26.30;4.97;;;;;;;16.16;52.24;97497.91;4952465;28;103146;-63
2024/04/09 03:03:37;;;;;;;14.07;3.42;;;;;;;16.25;51.66;97510.66;4954873;28;103484;-64
2024/04/09 03:06:07;;;;;;;19.42;4.30;;;;;;;16.33;51.46;97506.84;4953875;28;105520;-63
2024/04/09 03:08:34;;;;;;;22.52;3.85;;;;;;;16.17;51.21;97510.25;4950804;28;103319;-64
2024/04/09 03:11:12;;;;;;;22.20;4.30;;;;;;;16.28;48.87;97529.97;4952852;28;104978;-64
2024/04/09 03:13:40;;;;;;;20.20;3.95;;;;;;;16.35;46.63;97533.31;4936872;28;102986;-64
2024/04/09 03:16:24;;;;;;;13.73;3.38;;;;;;;16.23;47.86;97525.31;4957387;28;103305;-64
2024/04/09 03:18:55;;;;;;;25.30;3.88;;;;;;;16.32;48.24;97521.22;4967782;28;108097;-63
2024/04/09 03:21:21;;;;;;;28.45;6.25;;;;;;;16.36;48.40;97527.75;4939138;28;104978;-64
2024/04/09 03:23:50;;;;;;;14.55;3.40;;;;;;;16.47;49.08;97527.97;4950217;28;103875;-64
2024/04/09 03:26:16;;;;;;;13.82;2.85;;;;;;;16.49;49.65;97541.91;4946127;28;105357;-64
2024/04/09 03:28:41;;;;;;;13.45;3.22;;;;;;;16.50;49.79;97538.19;4945453;28;103768;-64
2024/04/09 03:31:08;;;;;;;16.90;3.85;;;;;;;16.50;50.24;97541.66;4945868;28;103981;-63
2024/04/09 03:33:34;;;;;;;17.10;3.58;;;;;;;16.47;51.18;97544.03;4931650;28;103196;-63
2024/04/09 03:36:08;;;;;;;12.00;3.00;;;;;;;16.44;51.36;97555.16;4938116;28;103974;-64
2024/04/09 03:38:38;;;;;;;10.45;3.17;;;;;;;16.40;51.14;97547.63;4962478;28;104637;-63
2024/04/09 03:41:09;;;;;;;19.70;4.20;;;;;;;16.31;51.89;97543.69;4946936;28;103066;-63
2024/04/09 03:43:34;;;;;;;25.35;4.53;;;;;;;16.02;53.17;97540.91;4943458;28;103023;-63
2024/04/09 03:46:08;;;;;;;25.33;4.35;;;;;;;15.79;52.87;97548.84;4946091;28;103200;-63
2024/04/09 03:48:38;;;;;;;27.00;3.88;;;;;;;16.00;52.04;97540.31;4962161;28;104509;-63
2024/04/09 03:51:05;;;;;;;11.25;3.00;;;;;;;16.08;51.73;97550.63;4945295;28;103417;-63
2024/04/09 03:53:32;;;;;;;25.33;4.20;;;;;;;15.60;53.83;97551.56;4935063;28;103038;-63
2024/04/09 03:56:03;;;;;;;31.77;4.88;;;;;;;15.67;53.51;97552.31;4929206;28;104054;-64
2024/04/09 03:58:31;;;;;;;20.15;5.07;;;;;;;15.41;54.09;97554.31;4944693;28;103426;-63
2024/04/09 04:01:04;;;;;;;26.00;5.07;;;;;;;15.19;54.92;97572.69;4930361;28;102866;-64
2024/04/09 04:03:32;;;;;;;23.92;4.72;;;;;;;15.45;54.21;97576.03;4945059;28;103252;-63
2024/04/09 04:06:03;;;;;;;17.45;4.93;;;;;;;15.65;53.66;97585.59;4949679;28;103517;-64
2024/04/09 04:08:36;;;;;;;12.82;3.15;;;;;;;15.69;53.78;97589.44;4948583;28;103418;-63
2024/04/09 04:11:04;;;;;;;26.17;4.00;;;;;;;15.83;53.27;97603.44;4941265;28;103033;-64
2024/04/09 04:13:32;;;;;;;16.23;3.75;;;;;;;15.86;53.43;97597.63;4931916;28;103389;-63
2024/04/09 04:16:12;;;;;;;14.75;2.92;;;;;;;15.86;54.27;97608.31;4946950;28;103471;-63
2024/04/09 04:18:45;;;;;;;29.73;4.60;;;;;;;15.75;54.58;97608.03;4943842;28;107974;-63
2024/04/09 04:21:15;;;;;;;28.27;4.50;;;;;;;15.66;52.75;97604.06;4946097;28;102980;-64
2024/04/09 04:23:42;;;;;;;17.52;3.70;;;;;;;15.96;51.78;97611.25;4935880;28;102828;-62
2024/04/09 04:26:21;;;;;;;21.45;3.85;;;;;;;15.93;51.81;97619.72;4936702;28;106316;-62
2024/04/09 04:28:48;;;;;;;29.20;4.30;;;;;;;16.13;50.34;97629.28;4949135;28;107710;-63
2024/04/09 04:31:19;;;;;;;20.08;3.63;;;;;;;16.45;49.28;97634.28;4948724;28;103021;-63
2024/04/09 04:33:46;;;;;;;30.40;4.65;;;;;;;16.85;47.43;97633.56;4947640;28;102760;-63
2024/04/09 04:36:18;;;;;;;32.05;4.93;;;;;;;16.97;47.32;97639.75;4961437;28;106228;-63
2024/04/09 04:38:45;;;;;;;33.25;4.63;;;;;;;16.96;47.42;97650.69;4946503;28;105451;-63
2024/04/09 04:41:11;;;;;;;25.73;4.13;;;;;;;16.95;47.92;97647.19;4932607;28;103275;-63
2024/04/09 04:43:40;;;;;;;28.42;5.13;;;;;;;17.06;47.23;97654.38;4940415;28;102835;-63
2024/04/09 04:46:09;;;;;;;24.25;4.05;;;;;;;17.15;46.93;97662.03;4943549;28;103489;-63
2024/04/09 04:48:38;;;;;;;25.08;3.40;;;;;;;17.20;47.20;97665.63;4944398;28;103312;-63
2024/04/09 04:51:06;;;;;;;19.00;3.30;;;;;;;17.23;47.23;97680.41;4944743;28;102893;-64
2024/04/09 04:53:34;;;;;;;24.10;2.83;;;;;;;17.19;47.54;97673.91;4948468;28;103344;-63
2024/04/09 04:56:00;;;;;;;20.27;3.40;;;;;;;17.25;47.65;97683.63;4935430;28;104001;-63
2024/04/09 04:58:26;;;;;;;25.38;2.90;;;;;;;17.21;48.18;97688.66;4946030;28;103709;-63
2024/04/09 05:00:55;;;;;;;17.17;3.30;;;;;;;17.19;48.50;97692.63;4933634;28;103283;-65
2024/04/09 05:03:21;;;;;;;16.05;3.20;;;;;;;17.22;48.31;97705.53;4944558;28;102994;-65
2024/04/09 05:05:47;;;;;;;20.20;3.33;;;;;;;17.17;48.48;97713.44;4930706;28;103180;-64
2024/04/09 05:08:13;;;;;;;15.40;3.67;;;;;;;17.17;49.35;97724.94;4932887;28;104556;-65
2024/04/09 05:10:39;;;;;;;15.35;3.33;;;;;;;17.16;49.05;97735.88;4916323;28;103486;-64
2024/04/09 05:13:05;;;;;;;13.98;2.58;;;;;;;17.10;49.54;97745.69;4959892;28;103312;-65
2024/04/09 05:15:30;;;;;;;20.55;2.63;;;;;;;17.11;49.55;97736.59;4946156;28;103723;-65
2024/04/09 05:18:02;;;;;;;18.30;2.67;;;;;;;17.09;49.74;97729.88;4934278;28;105166;-65
2024/04/09 05:20:29;;;;;;;21.02;2.03;;;;;;;17.02;50.21;97736.13;4945748;28;103628;-65
2024/04/09 05:22:57;;;;;;;17.27;2.40;;;;;;;17.01;50.06;97747.88;4930027;28;103404;-64
2024/04/09 05:25:32;;;;;;;14.05;2.20;;;;;;;16.97;50.53;97756.63;4962284;28;103993;-64
2024/04/09 05:28:02;;;;;;;14.35;3.00;;;;;;;16.93;50.65;97763.47;4944708;28;103663;-64
2024/04/09 05:30:40;;;;;;;11.57;2.50;;;;;;;17.00;50.85;97783.69;4946712;28;103870;-64
2024/04/09 05:33:12;;;;;;;16.92;2.63;;;;;;;16.97;51.29;97788.72;4945524;28;102978;-64
2024/04/09 05:35:38;;;;;;;12.73;2.20;;;;;;;16.92;51.03;97786.72;4945332;28;103451;-64
2024/04/09 05:38:04;;;;;;;15.85;2.33;;;;;;;16.94;51.23;97795.34;4936442;28;103298;-64
2024/04/09 05:40:30;;;;;;;14.70;2.17;;;;;;;16.97;51.49;97802.09;4945085;28;104424;-69
2024/04/09 05:42:55;;;;;;;17.38;2.33;;;;;;;16.91;51.85;97811.84;4954491;28;102894;-69
2024/04/09 05:45:22;;;;;;;17.35;3.08;;;;;;;16.78;52.71;97812.03;4950429;28;103184;-68
2024/04/09 05:47:50;;;;;;;13.15;1.98;;;;;;;17.09;51.66;97820.81;4952750;28;103169;-69
2024/04/09 05:50:16;;;;;;;8.52;1.90;;;;;;;17.13;51.39;97820.09;4938079;28;103108;-68
2024/04/09 05:52:44;;;;;;;10.65;1.52;;;;;;;17.07;52.13;97821.88;4941294;28;103052;-69
2024/04/09 05:55:11;;;;;;;13.35;2.15;;;;;;;16.82;53.03;97816.69;4955677;28;103158;-68
2024/04/09 05:57:37;;;;;;;9.93;1.85;;;;;;;16.76;53.57;97824.81;4949060;28;107720;-69
2024/04/09 06:00:11;;;;;;;17.35;1.92;;;;;;;16.73;54.22;97828.78;4951122;28;102706;-72
2024/04/09 06:02:47;;;;;;;9.23;1.70;;;;;;;16.68;54.58;97842.00;4962538;28;105477;-69
2024/04/09 06:05:16;;;;;;;8.35;1.83;;;;;;;16.77;54.61;97842.47;4928915;28;104571;-69
2024/04/09 06:07:45;;;;;;;11.88;2.03;;;;;;;16.73;54.77;97847.47;4933242;28;106037;-68
2024/04/09 06:10:18;;;;;;;18.30;1.70;;;;;;;16.91;54.40;97854.63;4951475;28;103000;-67
2024/04/09 06:12:47;;;;;;;12.25;1.50;;;;;;;16.70;55.63;97859.44;4939906;28;103949;-70
2024/04/09 06:15:16;;;;;;;19.38;2.00;;;;;;;16.60;56.51;97864.53;4948976;28;103910;-68
2024/04/09 06:17:44;;;;;;;14.00;1.88;;;;;;;16.61;56.04;97866.16;4945964;28;103443;-69
2024/04/09 06:20:10;;;;;;;7.78;1.65;;;;;;;16.62;56.63;97866.97;4949809;28;102822;-68
2024/04/09 06:22:36;;;;;;;9.15;2.03;;;;;;;16.56;56.57;97874.06;4940170;28;102883;-68
2024/04/09 06:25:03;;;;;;;14.80;1.80;;;;;;;16.71;56.34;97869.06;4929512;28;103261;-70
2024/04/09 06:27:31;;;;;;;11.50;1.98;;;;;;;16.62;56.40;97862.44;4950500;28;103165;-68
2024/04/09 06:29:56;;;;;;;10.63;1.88;;;;;;;16.85;56.03;97868.91;4938961;28;103118;-68
2024/04/09 06:32:22;;;;;;;6.53;1.73;;;;;;;16.66;56.67;97874.28;4953449;28;103134;-69
2024/04/09 06:34:50;;;;;;;12.23;1.67;;;;;;;16.87;56.33;97875.66;4946781;28;102807;-69
2024/04/09 06:37:16;;;;;;;12.45;2.10;;;;;;;16.88;56.32;97884.47;4964223;28;103413;-68
2024/04/09 06:39:42;;;;;;;10.57;1.92;;;;;;;16.58;57.23;97904.03;4936400;28;102869;-69
2024/04/09 06:42:08;;;;;;;9.85;1.63;;;;;;;16.67;57.08;97908.00;4954103;28;103508;-68
2024/04/09 06:44:34;;;;;;;9.88;2.45;;;;;;;16.69;57.13;97911.28;4946805;28;105678;-68
2024/04/09 06:47:00;;;;;;;11.75;1.70;;;;;;;16.72;57.52;97916.16;4950335;28;103808;-68
2024/04/09 06:49:26;;;;;;;16.38;2.08;;;;;;;16.83;57.13;97916.44;4957272;28;103038;-67
2024/04/09 06:51:58;;;;;;;15.85;1.80;;;;;;;16.93;56.78;97922.09;4954970;28;103723;-69
2024/04/09 06:54:24;;;;;;;9.90;1.83;;;;;;;16.78;57.47;97924.31;4966641;28;103323;-68
2024/04/09 06:56:49;;;;;;;11.82;1.80;;;;;;;16.66;58.12;97927.75;4951132;28;106713;-63
2024/04/09 06:59:15;;;;;;;7.97;1.45;;;;;;;16.95;57.58;97925.38;4949050;28;102921;-62
2024/04/09 07:01:41;;;;;;;7.13;1.75;;;;;;;16.89;57.43;97931.59;4951800;28;103008;-62
2024/04/09 07:04:07;;;;;;;9.60;1.65;;;;;;;16.93;57.49;97943.47;4929614;28;103877;-62
2024/04/09 07:06:35;;;;;;;11.60;1.58;;;;;;;17.10;57.66;97942.84;4939722;28;103298;-67
2024/04/09 07:09:04;;;;;;;11.60;1.85;;;;;;;16.91;57.78;97934.84;4969496;28;103066;-68
2024/04/09 07:11:30;;;;;;;9.90;2.30;;;;;;;17.09;57.64;97942.00;4966913;28;102891;-68
2024/04/09 07:13:58;;;;;;;8.38;1.42;;;;;;;17.32;57.16;97949.28;4920072;28;103901;-69
2024/04/09 07:16:28;;;;;;;9.98;2.00;;;;;;;17.61;56.86;97959.31;4967951;28;103497;-63
2024/04/09 07:18:59;;;;;;;8.93;1.70;;;;;;;17.86;56.19;97956.41;4949184;28;103262;-61
2024/04/09 07:21:26;;;;;;;13.15;2.15;;;;;;;17.21;58.02;97966.94;4964336;28;103401;-61
2024/04/09 07:23:54;;;;;;;11.15;2.30;;;;;;;17.21;57.83;97966.13;4933121;28;103186;-63
2024/04/09 07:26:20;;;;;;;9.60;1.60;;;;;;;17.17;58.29;97986.34;4943492;28;103463;-61
2024/04/09 07:28:51;;;;;;;8.10;1.33;;;;;;;16.94;59.04;97979.91;4950683;28;103673;-60
2024/04/09 07:31:17;;;;;;;5.07;1.42;;;;;;;17.02;58.89;97974.22;4951756;28;104452;-61
2024/04/09 07:33:46;;;;;;;11.48;2.05;;;;;;;16.90;59.16;97971.50;4962199;28;103266;-62
2024/04/09 07:36:16;;;;;;;10.40;1.83;;;;;;;16.91;59.80;97993.69;4948163;28;104166;-62
2024/04/09 07:38:41;;;;;;;8.73;1.90;;;;;;;16.80;59.94;98007.81;4933111;28;103583;-62
2024/04/09 07:41:07;;;;;;;16.58;2.10;;;;;;;16.94;59.28;98020.00;4927903;28;102854;-61
2024/04/09 07:43:36;;;;;;;9.07;1.67;;;;;;;16.70;59.98;98019.88;4932930;28;103852;-62
2024/04/09 07:46:02;;;;;;;10.05;1.73;;;;;;;16.32;61.53;98039.59;4947081;28;103424;-62
2024/04/09 07:48:30;;;;;;;11.38;1.88;;;;;;;16.19;62.05;98059.28;4934132;28;103012;-62
2024/04/09 07:50:56;;;;;;;8.25;1.33;;;;;;;15.45;62.29;98071.53;4951052;28;102844;-62
2024/04/09 07:53:25;;;;;;;11.23;1.50;;;;;;;15.39;62.07;98078.53;4962588;28;103280;-62
2024/04/09 07:55:54;;;;;;;9.32;1.10;;;;;;;14.72;62.09;98074.31;4933814;28;103245;-62
2024/04/09 07:58:20;;;;;;;8.10;0.70;;;;;;;14.60;61.76;98097.28;4949206;28;102794;-61
2024/04/09 08:00:46;;;;;;;3.63;0.70;;;;;;;14.90;61.13;98102.16;4948567;28;102727;-62
2024/04/09 08:03:12;;;;;;;4.93;0.77;;;;;;;14.82;60.21;98118.41;4942016;28;104192;-62
2024/04/09 08:05:38;;;;;;;2.08;0.52;;;;;;;14.76;60.89;98133.34;4933776;28;103544;-62
2024/04/09 08:08:04;;;;;;;3.97;0.50;;;;;;;15.11;59.86;98135.72;4925769;28;104264;-61
2024/04/09 08:10:29;;;;;;;1.17;0.55;;;;;;;15.23;59.46;98144.69;4946987;28;103103;-61
2024/04/09 08:12:57;;;;;;;1.17;0.40;;;;;;;14.77;59.89;98155.53;4939027;28;103087;-61
2024/04/09 08:15:24;;;;;;;0.98;0.25;;;;;;;14.19;61.26;98164.97;4931289;28;103508;-62
2024/04/09 08:17:50;;;;;;;4.72;0.80;;;;;;;14.03;61.24;98187.47;4949824;28;103366;-62
2024/04/09 08:20:19;;;;;;;7.03;0.32;;;;;;;13.97;60.30;98191.78;4956158;28;102743;-61
2024/04/09 08:22:50;;;;;;;8.48;0.82;;;;;;;13.93;59.69;98194.00;4946058;28;103314;-62
2024/04/09 08:25:17;;;;;;;5.22;0.38;;;;;;;13.80;59.25;98190.53;4932238;28;103532;-61
2024/04/09 08:27:43;;;;;;;7.43;0.90;;;;;;;13.62;59.18;98202.53;4936479;28;103917;-61
2024/04/09 08:30:12;;;;;;;11.68;0.60;;;;;;;13.41;59.13;98206.97;4934925;28;102837;-62
2024/04/09 08:32:39;;;;;;;1.77;0.55;;;;;;;13.57;58.40;98194.31;4946344;28;107807;-61
2024/04/09 08:35:05;;;;;;;4.30;0.30;;;;;;;13.36;58.19;98230.69;4932130;28;103586;-61
2024/04/09 08:37:34;;;;;;;5.43;0.65;;;;;;;13.29;57.47;98228.97;4944743;28;103098;-61
2024/04/09 08:40:03;;;;;;;7.15;0.35;;;;;;;13.45;56.42;98243.81;4937370;28;104108;-62
2024/04/09 08:42:29;;;;;;;5.03;0.57;;;;;;;13.27;56.92;98251.28;4934025;28;103907;-61
2024/04/09 08:44:57;;;;;;;6.30;0.85;;;;;;;13.12;57.29;98279.00;4948356;28;103627;-61
2024/04/09 08:47:25;;;;;;;10.23;0.85;;;;;;;12.70;57.80;98273.59;4949847;28;103008;-61
2024/04/09 08:49:55;;;;;;;12.80;0.80;;;;;;;12.74;58.03;98286.28;4931743;28;102819;-61
2024/04/09 08:52:28;;;;;;;2.92;0.68;;;;;;;12.92;57.48;98295.63;4948301;28;103299;-61
2024/04/09 08:54:56;;;;;;;15.98;1.45;;;;;;;12.75;57.95;98298.56;4933704;28;104939;-61
2024/04/09 08:57:22;;;;;;;3.28;0.63;;;;;;;12.87;57.74;98298.84;4928309;28;102938;-61
2024/04/09 08:59:50;;;;;;;3.38;0.40;;;;;;;12.58;58.11;98329.06;4939487;28;103369;-61
2024/04/09 09:02:18;;;;;;;5.55;0.47;;;;;;;12.39;58.81;98319.88;4932686;28;103293;-62
2024/04/09 09:04:45;;;;;;;1.65;0.38;;;;;;;12.62;57.58;98340.16;4952855;28;103354;-62
2024/04/09 09:07:18;;;;;;;1.98;0.25;;;;;;;12.38;55.97;98327.03;4929835;28;103846;-61
2024/04/09 09:09:45;;;;;;;3.78;0.50;;;;;;;12.23;56.10;98323.63;4947278;28;102777;-61
2024/04/09 09:12:11;;;;;;;3.40;0.35;;;;;;;12.24;56.29;98315.44;4939123;28;105542;-62
2024/04/09 09:14:37;;;;;;;4.82;0.40;;;;;;;11.84;57.39;98335.38;4931562;28;110023;-61
2024/04/09 09:17:07;;;;;;;5.28;0.45;;;;;;;12.02;57.55;98330.53;4949603;28;102823;-61
2024/04/09 09:19:36;;;;;;;1.85;0.40;;;;;;;11.82;57.98;98330.25;4926930;28;103172;-61
2024/04/09 09:22:10;;;;;;;0.75;0.35;;;;;;;11.96;58.08;98339.25;4926413;28;104174;-61
2024/04/09 09:24:36;;;;;;;1.55;0.50;;;;;;;11.85;58.54;98339.69;4949158;28;103437;-61
2024/04/09 09:27:13;;;;;;;3.25;0.52;;;;;;;11.83;58.08;98354.94;4952127;28;104145;-61
2024/04/09 09:29:38;;;;;;;2.80;0.60;;;;;;;11.87;58.10;98341.16;4947367;28;103000;-61
2024/04/09 09:32:05;;;;;;;2.22;0.47;;;;;;;11.87;57.35;98348.25;4934821;28;106569;-61
2024/04/09 09:34:40;;;;;;;5.78;0.80;;;;;;;11.82;57.60;98359.44;4947011;28;103523;-61
2024/04/09 09:37:08;;;;;;;4.38;0.45;;;;;;;11.65;56.94;98372.09;4933867;28;102977;-61
2024/04/09 09:39:40;;;;;;;3.58;0.57;;;;;;;11.39;57.28;98381.28;4929811;28;102837;-61
2024/04/09 09:42:09;;;;;;;4.95;0.70;;;;;;;11.43;57.20;98401.13;4923707;28;103357;-61
2024/04/09 09:44:37;;;;;;;3.15;0.50;;;;;;;11.45;57.78;98401.78;4943651;28;103424;-68
2024/04/09 09:47:04;;;;;;;1.17;0.40;;;;;;;11.35;57.68;98406.53;4932015;28;102907;-67
2024/04/09 09:49:31;;;;;;;1.00;0.40;;;;;;;11.60;57.22;98427.50;4939109;28;103177;-68
2024/04/09 09:51:57;;;;;;;7.72;0.90;;;;;;;11.37;57.50;98425.75;4937129;28;105813;-68
2024/04/09 09:54:29;;;;;;;1.70;0.52;;;;;;;11.37;57.41;98443.47;4945350;28;103571;-68
2024/04/09 09:57:00;;;;;;;4.57;0.60;;;;;;;11.23;57.74;98458.34;4932992;28;103022;-68
2024/04/09 09:59:31;;;;;;;1.95;0.60;;;;;;;11.12;58.14;98467.50;4919439;28;105332;-62
2024/04/09 10:02:00;;;;;;;3.65;0.55;;;;;;;11.10;58.06;98472.19;4948641;28;103292;-67
2024/04/09 10:04:26;;;;;;;5.32;0.55;;;;;;;11.24;57.98;98491.78;4965285;28;103273;-61
2024/04/09 10:07:03;;;;;;;3.30;0.60;;;;;;;11.28;58.45;98506.34;4948452;28;102733;-61
2024/04/09 10:09:48;;;;;;;8.40;0.70;;;;;;;11.19;58.24;98497.63;4946923;28;103279;-61
2024/04/09 10:12:23;;;;;;;1.75;0.50;;;;;;;11.10;59.09;98512.75;4947253;28;104252;-61
2024/04/09 10:14:56;;;;;;;;;;;;;;;10.87;59.53;98511.91;4936968;28;107204;-61
2024/04/09 10:17:27;;;;;;;1.25;0.35;;;;;;;11.05;58.93;98520.41;4934162;28;103972;-61
2024/04/09 10:19:55;;;;;;;2.25;0.57;;;;;;;11.43;58.55;98512.50;4932486;28;102975;-61
2024/04/09 10:22:23;;;;;;;1.80;0.50;;;;;;;11.44;58.54;98522.13;4947446;28;103458;-61
2024/04/09 10:24:52;;;;;;;1.65;0.80;;;;;;;11.49;58.65;98531.38;4931757;28;103927;-61
2024/04/09 10:27:19;;;;;;;1.25;0.50;;;;;;;11.47;58.96;98528.09;4934391;28;104316;-61
2024/04/09 10:29:53;;;;;;;2.92;0.50;;;;;;;11.35;59.13;98531.16;4949321;28;103099;-61
2024/04/09 10:32:24;;;;;;;3.60;0.68;;;;;;;11.45;58.49;98526.44;4957039;28;103181;-61
2024/04/09 10:34:52;;;;;;;1.55;0.40;;;;;;;11.30;58.98;98533.50;4937799;28;103799;-61
2024/04/09 10:37:18;;;;;;;3.92;0.50;;;;;;;11.54;58.66;98527.19;4947146;28;103155;-62
2024/04/09 10:39:44;;;;;;;3.28;0.60;;;;;;;11.39;59.43;98527.13;4945040;28;103141;-61
2024/04/09 10:42:09;;;;;;;1.92;0.60;;;;;;;11.18;59.92;98525.13;4934095;28;104609;-61
2024/04/09 10:44:35;;;;;;;1.85;0.50;;;;;;;11.16;60.02;98532.44;4951539;28;103124;-62
2024/04/09 10:47:03;;;;;;;0.60;0.30;;;;;;;11.35;59.95;98536.44;4948941;28;103616;-61
2024/04/09 10:49:29;;;;;;;3.15;0.70;;;;;;;11.38;59.67;98535.28;4935305;28;103821;-61
2024/04/09 10:51:55;;;;;;;4.88;0.95;;;;;;;11.40;59.53;98535.94;4932459;28;103489;-61
2024/04/09 10:54:21;;;;;;;2.13;0.90;;;;;;;11.24;59.62;98544.81;4933030;28;104445;-61
2024/04/09 10:56:57;;;;;;;2.17;0.80;;;;;;;11.20;59.28;98544.34;4942731;28;103104;-61
2024/04/09 10:59:24;;;;;;;4.10;0.68;;;;;;;11.12;58.48;98557.63;4948158;28;102839;-61
2024/04/09 11:01:50;;;;;;;3.10;0.50;;;;;;;11.00;58.53;98554.56;4943313;28;103146;-61
2024/04/09 11:04:21;;;;;;;1.88;0.40;;;;;;;11.47;57.68;98562.56;4926172;28;104752;-61
2024/04/09 11:06:49;;;;;;;3.13;0.50;;;;;;;11.35;58.15;98565.63;4944110;28;102942;-61
2024/04/09 11:09:20;;;;;;;3.03;0.50;;;;;;;11.11;58.99;98569.25;4923982;28;103212;-61
2024/04/09 11:11:49;;;;;;;3.40;0.70;;;;;;;11.05;58.20;98576.06;4943880;28;103454;-62
2024/04/09 11:14:17;;;;;;;8.02;0.55;;;;;;;10.92;58.98;98595.16;4932553;28;105568;-61
2024/04/09 11:16:46;;;;;;;2.90;0.60;;;;;;;10.97;58.76;98596.50;4939832;28;102896;-61
2024/04/09 11:19:25;;;;;;;6.18;0.80;;;;;;;10.97;59.29;98610.56;4927218;28;103179;-61
2024/04/09 11:21:51;;;;;;;1.65;0.55;;;;;;;10.93;57.99;98611.91;4944191;28;103631;-61
2024/04/09 11:24:17;;;;;;;2.38;0.80;;;;;;;11.12;57.30;98618.59;4928166;28;106132;-61